Conejo, California
Current Conditions -  °F | °C
As of 1:18 AM on Wednesday 28 Jan 2015 (Local Time) from KHJO Reporting Station
Haze Haze  
Wind Chill: 47°   Ceiling: Unl
Heat Index: 47°   Visibility: 1.7mi
Dew Point: 46°   Wind: 0mph
Humidity: 97%   Direction: NA
Pressure: 30.25"   Gusts: NA
Location:  36.5405°N, 119.652°W
Report Text: KHJO 280918Z AUTO 00000KT 1 3/4SM BR CLR 08/08 A3025 RMK AO2 T00830078
Loading
Personal Weather Stations






























Interactive Weather Map New forecast layout! Learn more

10-Day Weather Forecast

Advertisements
Track Severe Weather on mobile